sensor_id;sensor_type;location;lat;lon;timestamp;pressure;altitude;pressure_sealevel;temperature;humidity
11444;BME280;5778;47.856;12.154;2023-02-10T00:02:06;98034.31;;;-1.50;100.00
11444;BME280;5778;47.856;12.154;2023-02-10T00:04:34;98030.19;;;-1.62;100.00
11444;BME280;5778;47.856;12.154;2023-02-10T00:07:02;98036.47;;;-1.64;100.00
11444;BME280;5778;47.856;12.154;2023-02-10T00:09:29;98031.09;;;-1.82;100.00
11444;BME280;5778;47.856;12.154;2023-02-10T00:11:56;98021.47;;;-1.91;100.00
11444;BME280;5778;47.856;12.154;2023-02-10T00:14:24;98030.78;;;-1.98;100.00
11444;BME280;5778;47.856;12.154;2023-02-10T00:16:52;98027.31;;;-2.08;100.00
11444;BME280;5778;47.856;12.154;2023-02-10T00:19:21;98017.72;;;-2.07;100.00
11444;BME280;5778;47.856;12.154;2023-02-10T00:21:50;98014.38;;;-2.19;100.00
11444;BME280;5778;47.856;12.154;2023-02-10T00:24:17;98015.19;;;-2.28;100.00
11444;BME280;5778;47.856;12.154;2023-02-10T00:26:44;98016.31;;;-2.21;100.00
11444;BME280;5778;47.856;12.154;2023-02-10T00:29:12;98003.81;;;-2.27;100.00
11444;BME280;5778;47.856;12.154;2023-02-10T00:31:40;98021.09;;;-2.26;100.00
11444;BME280;5778;47.856;12.154;2023-02-10T00:34:11;98023.44;;;-2.23;100.00
11444;BME280;5778;47.856;12.154;2023-02-10T00:36:39;98020.50;;;-2.39;100.00
11444;BME280;5778;47.856;12.154;2023-02-10T00:39:12;98027.00;;;-2.54;100.00
11444;BME280;5778;47.856;12.154;2023-02-10T00:41:39;98029.41;;;-2.62;100.00
11444;BME280;5778;47.856;12.154;2023-02-10T00:44:08;98030.66;;;-2.66;100.00
11444;BME280;5778;47.856;12.154;2023-02-10T00:46:36;98028.28;;;-2.69;100.00
11444;BME280;5778;47.856;12.154;2023-02-10T00:49:04;98023.75;;;-2.67;100.00
11444;BME280;5778;47.856;12.154;2023-02-10T00:51:34;98039.22;;;-2.95;100.00
11444;BME280;5778;47.856;12.154;2023-02-10T00:54:01;98040.59;;;-3.12;100.00
11444;BME280;5778;47.856;12.154;2023-02-10T00:56:32;98040.09;;;-3.26;100.00
11444;BME280;5778;47.856;12.154;2023-02-10T00:58:59;98042.25;;;-3.11;100.00
11444;BME280;5778;47.856;12.154;2023-02-10T01:01:26;98039.59;;;-3.00;100.00
11444;BME280;5778;47.856;12.154;2023-02-10T01:03:55;98044.00;;;-3.00;100.00
11444;BME280;5778;47.856;12.154;2023-02-10T01:06:27;98038.06;;;-3.02;100.00
11444;BME280;5778;47.856;12.154;2023-02-10T01:08:53;98043.03;;;-3.20;100.00
11444;BME280;5778;47.856;12.154;2023-02-10T01:11:21;98053.53;;;-3.21;100.00
11444;BME280;5778;47.856;12.154;2023-02-10T01:13:50;98050.91;;;-3.42;100.00
11444;BME280;5778;47.856;12.154;2023-02-10T01:16:19;98054.44;;;-3.32;100.00
11444;BME280;5778;47.856;12.154;2023-02-10T01:18:46;98056.72;;;-3.18;100.00
11444;BME280;5778;47.856;12.154;2023-02-10T01:21:15;98056.00;;;-3.51;100.00
11444;BME280;5778;47.856;12.154;2023-02-10T01:23:43;98056.19;;;-3.64;100.00
11444;BME280;5778;47.856;12.154;2023-02-10T01:26:10;98064.66;;;-3.51;100.00
11444;BME280;5778;47.856;12.154;2023-02-10T01:31:07;98062.81;;;-3.28;100.00
11444;BME280;5778;47.856;12.154;2023-02-10T01:33:36;98069.34;;;-3.45;100.00
11444;BME280;5778;47.856;12.154;2023-02-10T01:36:04;98079.78;;;-3.24;100.00
11444;BME280;5778;47.856;12.154;2023-02-10T01:38:32;98070.69;;;-3.19;100.00
11444;BME280;5778;47.856;12.154;2023-02-10T01:40:59;98068.63;;;-3.36;100.00
11444;BME280;5778;47.856;12.154;2023-02-10T01:43:27;98071.81;;;-3.12;100.00
11444;BME280;5778;47.856;12.154;2023-02-10T01:45:54;98077.53;;;-3.18;100.00
11444;BME280;5778;47.856;12.154;2023-02-10T01:48:23;98078.94;;;-3.14;100.00
11444;BME280;5778;47.856;12.154;2023-02-10T01:50:56;98071.84;;;-2.91;100.00
11444;BME280;5778;47.856;12.154;2023-02-10T01:53:25;98083.47;;;-2.95;100.00
11444;BME280;5778;47.856;12.154;2023-02-10T01:55:55;98073.38;;;-2.89;100.00
11444;BME280;5778;47.856;12.154;2023-02-10T01:58:26;98076.34;;;-2.73;100.00
11444;BME280;5778;47.856;12.154;2023-02-10T02:00:54;98093.66;;;-2.72;100.00
11444;BME280;5778;47.856;12.154;2023-02-10T02:03:25;98098.97;;;-2.73;100.00
11444;BME280;5778;47.856;12.154;2023-02-10T02:05:52;98095.78;;;-2.56;100.00
11444;BME280;5778;47.856;12.154;2023-02-10T02:08:23;98098.28;;;-2.55;100.00
11444;BME280;5778;47.856;12.154;2023-02-10T02:11:16;98092.22;;;-2.55;100.00
11444;BME280;5778;47.856;12.154;2023-02-10T02:14:08;98087.06;;;-2.46;100.00
11444;BME280;5778;47.856;12.154;2023-02-10T02:16:48;98087.13;;;-2.36;100.00
11444;BME280;5778;47.856;12.154;2023-02-10T02:22:59;98095.44;;;-2.22;100.00
11444;BME280;5778;47.856;12.154;2023-02-10T02:25:41;98092.13;;;-2.24;100.00
11444;BME280;5778;47.856;12.154;2023-02-10T02:28:23;98101.72;;;-2.24;100.00
11444;BME280;5778;47.856;12.154;2023-02-10T02:31:08;98103.91;;;-2.29;100.00
11444;BME280;5778;47.856;12.154;2023-02-10T02:33:49;98105.84;;;-2.22;100.00
11444;BME280;5778;47.856;12.154;2023-02-10T02:36:21;98097.69;;;-2.38;100.00
11444;BME280;5778;47.856;12.154;2023-02-10T02:38:51;98103.97;;;-2.40;100.00
11444;BME280;5778;47.856;12.154;2023-02-10T02:41:22;98113.56;;;-2.41;100.00
11444;BME280;5778;47.856;12.154;2023-02-10T02:43:50;98116.38;;;-2.33;100.00
11444;BME280;5778;47.856;12.154;2023-02-10T02:46:24;98116.53;;;-2.25;100.00
11444;BME280;5778;47.856;12.154;2023-02-10T02:49:06;98114.56;;;-2.32;100.00
11444;BME280;5778;47.856;12.154;2023-02-10T02:51:41;98117.31;;;-2.34;100.00
11444;BME280;5778;47.856;12.154;2023-02-10T02:54:19;98119.28;;;-2.47;100.00
11444;BME280;5778;47.856;12.154;2023-02-10T02:56:56;98123.72;;;-2.38;100.00
11444;BME280;5778;47.856;12.154;2023-02-10T02:59:33;98120.16;;;-2.37;100.00
11444;BME280;5778;47.856;12.154;2023-02-10T03:02:06;98130.72;;;-2.38;100.00
11444;BME280;5778;47.856;12.154;2023-02-10T03:04:38;98124.81;;;-2.40;100.00
11444;BME280;5778;47.856;12.154;2023-02-10T03:07:06;98126.34;;;-2.38;100.00
11444;BME280;5778;47.856;12.154;2023-02-10T03:09:36;98128.56;;;-2.33;100.00
11444;BME280;5778;47.856;12.154;2023-02-10T03:12:04;98127.75;;;-2.34;100.00
11444;BME280;5778;47.856;12.154;2023-02-10T03:14:31;98126.25;;;-2.27;100.00
11444;BME280;5778;47.856;12.154;2023-02-10T03:16:59;98119.41;;;-2.28;100.00
11444;BME280;5778;47.856;12.154;2023-02-10T03:19:26;98132.34;;;-2.37;100.00
11444;BME280;5778;47.856;12.154;2023-02-10T03:21:55;98122.69;;;-2.26;100.00
11444;BME280;5778;47.856;12.154;2023-02-10T03:24:21;98127.88;;;-2.56;100.00
11444;BME280;5778;47.856;12.154;2023-02-10T03:26:50;98132.56;;;-2.50;100.00
11444;BME280;5778;47.856;12.154;2023-02-10T03:29:20;98127.66;;;-2.43;100.00
11444;BME280;5778;47.856;12.154;2023-02-10T03:31:49;98133.50;;;-2.51;100.00
11444;BME280;5778;47.856;12.154;2023-02-10T03:34:16;98131.84;;;-2.52;100.00
11444;BME280;5778;47.856;12.154;2023-02-10T03:36:43;98133.94;;;-2.46;100.00
11444;BME280;5778;47.856;12.154;2023-02-10T03:39:17;98142.22;;;-2.41;100.00
11444;BME280;5778;47.856;12.154;2023-02-10T03:41:44;98143.44;;;-2.45;100.00
11444;BME280;5778;47.856;12.154;2023-02-10T03:44:13;98146.59;;;-2.41;100.00
11444;BME280;5778;47.856;12.154;2023-02-10T03:46:40;98146.91;;;-2.55;100.00
11444;BME280;5778;47.856;12.154;2023-02-10T03:49:07;98142.91;;;-2.59;100.00
11444;BME280;5778;47.856;12.154;2023-02-10T03:51:34;98154.16;;;-2.59;100.00
11444;BME280;5778;47.856;12.154;2023-02-10T03:54:01;98143.41;;;-2.65;100.00
11444;BME280;5778;47.856;12.154;2023-02-10T03:56:34;98134.97;;;-2.58;100.00
11444;BME280;5778;47.856;12.154;2023-02-10T03:59:01;98140.25;;;-2.69;100.00
11444;BME280;5778;47.856;12.154;2023-02-10T04:01:28;98142.16;;;-2.71;100.00
11444;BME280;5778;47.856;12.154;2023-02-10T04:03:56;98141.19;;;-2.70;100.00
11444;BME280;5778;47.856;12.154;2023-02-10T04:06:23;98143.91;;;-2.92;100.00
11444;BME280;5778;47.856;12.154;2023-02-10T04:08:54;98138.53;;;-2.79;100.00
11444;BME280;5778;47.856;12.154;2023-02-10T04:11:21;98142.56;;;-2.86;100.00
11444;BME280;5778;47.856;12.154;2023-02-10T04:13:52;98146.56;;;-2.82;100.00
11444;BME280;5778;47.856;12.154;2023-02-10T04:16:22;98147.66;;;-2.85;100.00
11444;BME280;5778;47.856;12.154;2023-02-10T04:18:53;98137.50;;;-2.88;100.00
11444;BME280;5778;47.856;12.154;2023-02-10T04:21:20;98146.00;;;-2.86;100.00
11444;BME280;5778;47.856;12.154;2023-02-10T04:23:47;98138.81;;;-2.73;100.00
11444;BME280;5778;47.856;12.154;2023-02-10T04:26:15;98145.84;;;-2.73;100.00
11444;BME280;5778;47.856;12.154;2023-02-10T04:28:43;98144.53;;;-2.79;100.00
11444;BME280;5778;47.856;12.154;2023-02-10T04:31:12;98152.06;;;-2.85;100.00
11444;BME280;5778;47.856;12.154;2023-02-10T04:33:41;98155.91;;;-2.80;100.00
11444;BME280;5778;47.856;12.154;2023-02-10T04:36:09;98152.63;;;-2.82;100.00
11444;BME280;5778;47.856;12.154;2023-02-10T04:38:36;98153.81;;;-2.86;100.00
11444;BME280;5778;47.856;12.154;2023-02-10T04:41:07;98162.13;;;-2.92;100.00
11444;BME280;5778;47.856;12.154;2023-02-10T04:43:37;98157.72;;;-2.91;100.00
11444;BME280;5778;47.856;12.154;2023-02-10T04:46:04;98148.53;;;-2.95;100.00
11444;BME280;5778;47.856;12.154;2023-02-10T04:48:32;98155.72;;;-2.88;100.00
11444;BME280;5778;47.856;12.154;2023-02-10T04:51:05;98159.72;;;-2.84;100.00
11444;BME280;5778;47.856;12.154;2023-02-10T04:53:33;98160.47;;;-2.93;100.00
11444;BME280;5778;47.856;12.154;2023-02-10T04:55:59;98151.63;;;-3.01;100.00
11444;BME280;5778;47.856;12.154;2023-02-10T04:58:27;98155.81;;;-3.10;100.00
11444;BME280;5778;47.856;12.154;2023-02-10T05:00:54;98150.78;;;-3.02;100.00
11444;BME280;5778;47.856;12.154;2023-02-10T05:03:21;98155.66;;;-3.08;100.00
11444;BME280;5778;47.856;12.154;2023-02-10T05:05:49;98167.56;;;-2.95;100.00
11444;BME280;5778;47.856;12.154;2023-02-10T05:08:18;98160.38;;;-3.02;100.00
11444;BME280;5778;47.856;12.154;2023-02-10T05:10:48;98163.81;;;-3.02;100.00
11444;BME280;5778;47.856;12.154;2023-02-10T05:13:15;98168.06;;;-3.01;100.00
11444;BME280;5778;47.856;12.154;2023-02-10T05:15:43;98173.25;;;-3.01;100.00
11444;BME280;5778;47.856;12.154;2023-02-10T05:18:10;98180.72;;;-2.96;100.00
11444;BME280;5778;47.856;12.154;2023-02-10T05:20:37;98176.81;;;-3.02;100.00
11444;BME280;5778;47.856;12.154;2023-02-10T05:23:05;98176.34;;;-3.07;100.00
11444;BME280;5778;47.856;12.154;2023-02-10T05:25:33;98174.81;;;-3.09;100.00
11444;BME280;5778;47.856;12.154;2023-02-10T05:28:03;98176.50;;;-3.19;100.00
11444;BME280;5778;47.856;12.154;2023-02-10T05:30:32;98182.91;;;-3.12;100.00
11444;BME280;5778;47.856;12.154;2023-02-10T05:32:59;98182.31;;;-3.27;100.00
11444;BME280;5778;47.856;12.154;2023-02-10T05:35:26;98177.09;;;-3.27;100.00
11444;BME280;5778;47.856;12.154;2023-02-10T05:37:53;98174.41;;;-3.25;100.00
11444;BME280;5778;47.856;12.154;2023-02-10T05:40:22;98178.09;;;-3.39;100.00
11444;BME280;5778;47.856;12.154;2023-02-10T05:42:50;98180.81;;;-3.40;100.00
11444;BME280;5778;47.856;12.154;2023-02-10T05:45:17;98185.41;;;-3.33;100.00
11444;BME280;5778;47.856;12.154;2023-02-10T05:47:44;98181.16;;;-3.45;100.00
11444;BME280;5778;47.856;12.154;2023-02-10T05:50:11;98184.50;;;-3.54;100.00
11444;BME280;5778;47.856;12.154;2023-02-10T05:52:38;98187.09;;;-3.65;100.00
11444;BME280;5778;47.856;12.154;2023-02-10T05:55:06;98197.50;;;-3.54;100.00
11444;BME280;5778;47.856;12.154;2023-02-10T05:57:35;98201.28;;;-3.58;100.00
11444;BME280;5778;47.856;12.154;2023-02-10T06:00:04;98218.44;;;-3.55;100.00
11444;BME280;5778;47.856;12.154;2023-02-10T06:02:37;98216.63;;;-3.44;100.00
11444;BME280;5778;47.856;12.154;2023-02-10T06:05:05;98213.53;;;-3.38;100.00
11444;BME280;5778;47.856;12.154;2023-02-10T06:07:32;98217.09;;;-3.39;100.00
11444;BME280;5778;47.856;12.154;2023-02-10T06:09:59;98219.59;;;-3.59;100.00
11444;BME280;5778;47.856;12.154;2023-02-10T06:12:26;98230.94;;;-3.71;100.00
11444;BME280;5778;47.856;12.154;2023-02-10T06:14:55;98234.13;;;-3.68;100.00
11444;BME280;5778;47.856;12.154;2023-02-10T06:17:22;98236.25;;;-3.62;100.00
11444;BME280;5778;47.856;12.154;2023-02-10T06:19:51;98233.31;;;-3.68;100.00
11444;BME280;5778;47.856;12.154;2023-02-10T06:22:19;98235.31;;;-3.61;100.00
11444;BME280;5778;47.856;12.154;2023-02-10T06:24:46;98231.16;;;-3.52;100.00
11444;BME280;5778;47.856;12.154;2023-02-10T06:27:13;98233.66;;;-3.40;100.00
11444;BME280;5778;47.856;12.154;2023-02-10T06:29:41;98237.91;;;-3.39;100.00
11444;BME280;5778;47.856;12.154;2023-02-10T06:32:10;98243.22;;;-3.40;100.00
11444;BME280;5778;47.856;12.154;2023-02-10T06:34:37;98246.53;;;-3.38;100.00
11444;BME280;5778;47.856;12.154;2023-02-10T06:37:06;98254.09;;;-3.35;100.00
11444;BME280;5778;47.856;12.154;2023-02-10T06:39:33;98255.63;;;-3.33;100.00
11444;BME280;5778;47.856;12.154;2023-02-10T06:42:02;98254.22;;;-3.37;100.00
11444;BME280;5778;47.856;12.154;2023-02-10T06:44:29;98268.41;;;-3.30;100.00
11444;BME280;5778;47.856;12.154;2023-02-10T06:46:57;98273.34;;;-3.27;100.00
11444;BME280;5778;47.856;12.154;2023-02-10T06:49:25;98267.72;;;-3.21;100.00
11444;BME280;5778;47.856;12.154;2023-02-10T06:51:52;98284.22;;;-3.22;100.00
11444;BME280;5778;47.856;12.154;2023-02-10T06:54:20;98279.66;;;-3.18;100.00
11444;BME280;5778;47.856;12.154;2023-02-10T06:56:48;98290.38;;;-3.12;100.00
11444;BME280;5778;47.856;12.154;2023-02-10T06:59:15;98293.09;;;-3.13;100.00
11444;BME280;5778;47.856;12.154;2023-02-10T07:01:42;98300.69;;;-3.21;100.00
11444;BME280;5778;47.856;12.154;2023-02-10T07:04:09;98298.06;;;-3.10;100.00
11444;BME280;5778;47.856;12.154;2023-02-10T07:06:38;98298.19;;;-3.01;100.00
11444;BME280;5778;47.856;12.154;2023-02-10T07:09:06;98305.00;;;-2.89;100.00
11444;BME280;5778;47.856;12.154;2023-02-10T07:11:33;98320.31;;;-2.95;100.00
11444;BME280;5778;47.856;12.154;2023-02-10T07:14:00;98311.06;;;-2.99;100.00
11444;BME280;5778;47.856;12.154;2023-02-10T07:16:27;98325.50;;;-2.84;100.00
11444;BME280;5778;47.856;12.154;2023-02-10T07:18:56;98318.47;;;-2.73;100.00
11444;BME280;5778;47.856;12.154;2023-02-10T07:21:23;98316.19;;;-2.55;100.00
11444;BME280;5778;47.856;12.154;2023-02-10T07:23:51;98313.94;;;-2.49;100.00
11444;BME280;5778;47.856;12.154;2023-02-10T07:26:18;98316.28;;;-2.46;100.00
11444;BME280;5778;47.856;12.154;2023-02-10T07:28:46;98321.22;;;-2.32;100.00
11444;BME280;5778;47.856;12.154;2023-02-10T07:31:13;98318.06;;;-2.15;100.00
11444;BME280;5778;47.856;12.154;2023-02-10T07:33:41;98314.44;;;-2.03;100.00
11444;BME280;5778;47.856;12.154;2023-02-10T07:36:08;98318.97;;;-2.05;100.00
11444;BME280;5778;47.856;12.154;2023-02-10T07:38:35;98317.38;;;-2.17;100.00
11444;BME280;5778;47.856;12.154;2023-02-10T07:41:05;98318.34;;;-1.97;100.00
11444;BME280;5778;47.856;12.154;2023-02-10T07:43:33;98318.59;;;-2.00;100.00
11444;BME280;5778;47.856;12.154;2023-02-10T07:46:05;98324.94;;;-1.93;100.00
11444;BME280;5778;47.856;12.154;2023-02-10T07:48:33;98318.97;;;-2.05;100.00
11444;BME280;5778;47.856;12.154;2023-02-10T07:51:01;98319.53;;;-2.22;100.00
11444;BME280;5778;47.856;12.154;2023-02-10T07:53:28;98322.88;;;-2.31;100.00
11444;BME280;5778;47.856;12.154;2023-02-10T07:55:57;98328.13;;;-2.42;100.00
11444;BME280;5778;47.856;12.154;2023-02-10T07:58:27;98339.84;;;-2.36;100.00
11444;BME280;5778;47.856;12.154;2023-02-10T08:00:55;98339.66;;;-2.24;100.00
11444;BME280;5778;47.856;12.154;2023-02-10T08:03:22;98338.50;;;-1.99;100.00
11444;BME280;5778;47.856;12.154;2023-02-10T08:05:50;98325.19;;;-2.17;100.00
11444;BME280;5778;47.856;12.154;2023-02-10T08:08:17;98326.78;;;-2.05;100.00
11444;BME280;5778;47.856;12.154;2023-02-10T08:10:44;98334.19;;;-1.89;100.00
11444;BME280;5778;47.856;12.154;2023-02-10T08:13:12;98333.22;;;-1.88;100.00
11444;BME280;5778;47.856;12.154;2023-02-10T08:15:40;98341.94;;;-1.78;100.00
11444;BME280;5778;47.856;12.154;2023-02-10T08:18:07;98338.00;;;-1.73;100.00
11444;BME280;5778;47.856;12.154;2023-02-10T08:20:34;98340.94;;;-1.46;100.00
11444;BME280;5778;47.856;12.154;2023-02-10T08:23:01;98339.97;;;-1.45;100.00
11444;BME280;5778;47.856;12.154;2023-02-10T08:25:29;98345.50;;;-1.38;100.00
11444;BME280;5778;47.856;12.154;2023-02-10T08:27:56;98339.97;;;-1.15;100.00
11444;BME280;5778;47.856;12.154;2023-02-10T08:30:23;98330.94;;;-1.11;100.00
11444;BME280;5778;47.856;12.154;2023-02-10T08:32:52;98330.69;;;-1.08;100.00
11444;BME280;5778;47.856;12.154;2023-02-10T08:35:20;98332.16;;;-0.85;100.00
11444;BME280;5778;47.856;12.154;2023-02-10T08:37:47;98326.34;;;-0.49;100.00
11444;BME280;5778;47.856;12.154;2023-02-10T08:40:14;98332.38;;;-0.39;100.00
11444;BME280;5778;47.856;12.154;2023-02-10T08:42:42;98335.59;;;-0.07;100.00
11444;BME280;5778;47.856;12.154;2023-02-10T08:45:10;98332.97;;;0.12;100.00
11444;BME280;5778;47.856;12.154;2023-02-10T08:47:37;98335.16;;;0.26;100.00
11444;BME280;5778;47.856;12.154;2023-02-10T08:50:06;98333.63;;;0.52;100.00
11444;BME280;5778;47.856;12.154;2023-02-10T08:52:34;98331.66;;;0.63;100.00
11444;BME280;5778;47.856;12.154;2023-02-10T08:55:02;98326.03;;;0.49;100.00
11444;BME280;5778;47.856;12.154;2023-02-10T08:57:29;98333.38;;;0.36;100.00
11444;BME280;5778;47.856;12.154;2023-02-10T08:59:56;98335.16;;;0.45;100.00
11444;BME280;5778;47.856;12.154;2023-02-10T09:02:23;98330.00;;;0.62;100.00
11444;BME280;5778;47.856;12.154;2023-02-10T09:04:51;98336.31;;;0.79;100.00
11444;BME280;5778;47.856;12.154;2023-02-10T09:07:19;98346.66;;;1.17;100.00
11444;BME280;5778;47.856;12.154;2023-02-10T09:09:47;98347.63;;;1.16;100.00
11444;BME280;5778;47.856;12.154;2023-02-10T09:12:14;98340.81;;;1.23;100.00
11444;BME280;5778;47.856;12.154;2023-02-10T09:14:41;98351.84;;;1.26;100.00
11444;BME280;5778;47.856;12.154;2023-02-10T09:17:08;98349.88;;;1.38;100.00
11444;BME280;5778;47.856;12.154;2023-02-10T09:19:35;98352.56;;;1.46;97.99
11444;BME280;5778;47.856;12.154;2023-02-10T09:22:03;98349.28;;;1.44;98.12
11444;BME280;5778;47.856;12.154;2023-02-10T09:24:31;98349.81;;;1.47;95.49
11444;BME280;5778;47.856;12.154;2023-02-10T09:26:59;98342.06;;;1.55;98.68
11444;BME280;5778;47.856;12.154;2023-02-10T09:29:26;98344.31;;;1.85;95.43
11444;BME280;5778;47.856;12.154;2023-02-10T09:31:53;98353.03;;;2.03;95.46
11444;BME280;5778;47.856;12.154;2023-02-10T09:34:27;98346.38;;;2.26;93.76
11444;BME280;5778;47.856;12.154;2023-02-10T09:37:01;98350.19;;;2.32;87.83
11444;BME280;5778;47.856;12.154;2023-02-10T09:39:41;98356.94;;;2.34;90.79
11444;BME280;5778;47.856;12.154;2023-02-10T09:42:09;98349.28;;;2.23;87.96
11444;BME280;5778;47.856;12.154;2023-02-10T09:44:45;98344.81;;;2.59;91.07
11444;BME280;5778;47.856;12.154;2023-02-10T09:47:29;98353.41;;;2.43;83.28
11444;BME280;5778;47.856;12.154;2023-02-10T09:52:59;98351.94;;;2.66;82.94
11444;BME280;5778;47.856;12.154;2023-02-10T09:55:33;98348.81;;;2.96;83.75
11444;BME280;5778;47.856;12.154;2023-02-10T09:58:06;98349.56;;;3.06;77.16
11444;BME280;5778;47.856;12.154;2023-02-10T10:00:40;98351.25;;;3.49;80.62
11444;BME280;5778;47.856;12.154;2023-02-10T10:03:14;98352.19;;;3.40;72.37
11444;BME280;5778;47.856;12.154;2023-02-10T10:05:48;98346.56;;;3.27;72.44
11444;BME280;5778;47.856;12.154;2023-02-10T10:08:22;98343.13;;;3.34;73.08
11444;BME280;5778;47.856;12.154;2023-02-10T10:10:56;98337.25;;;3.40;75.24
11444;BME280;5778;47.856;12.154;2023-02-10T10:13:25;98340.25;;;3.61;70.85
11444;BME280;5778;47.856;12.154;2023-02-10T10:18:38;98336.75;;;4.10;70.00
11444;BME280;5778;47.856;12.154;2023-02-10T10:21:14;98324.44;;;4.11;66.03
11444;BME280;5778;47.856;12.154;2023-02-10T10:23:52;98317.53;;;4.42;69.35
11444;BME280;5778;47.856;12.154;2023-02-10T10:26:37;98312.06;;;4.27;64.13
11444;BME280;5778;47.856;12.154;2023-02-10T10:29:20;98309.28;;;4.61;63.52
11444;BME280;5778;47.856;12.154;2023-02-10T10:31:56;98313.84;;;4.83;66.34
11444;BME280;5778;47.856;12.154;2023-02-10T10:34:27;98309.09;;;4.78;60.95
11444;BME280;5778;47.856;12.154;2023-02-10T10:36:57;98305.84;;;4.52;62.16
11444;BME280;5778;47.856;12.154;2023-02-10T10:39:29;98303.47;;;4.89;62.10
11444;BME280;5778;47.856;12.154;2023-02-10T10:42:01;98303.31;;;5.37;62.79
11444;BME280;5778;47.856;12.154;2023-02-10T10:44:31;98304.91;;;5.08;58.39
11444;BME280;5778;47.856;12.154;2023-02-10T10:47:05;98301.88;;;5.27;60.36
11444;BME280;5778;47.856;12.154;2023-02-10T10:49:34;98296.22;;;4.91;60.41
11444;BME280;5778;47.856;12.154;2023-02-10T10:52:01;98299.13;;;5.12;59.79
11444;BME280;5778;47.856;12.154;2023-02-10T10:54:30;98291.56;;;5.01;57.38
11444;BME280;5778;47.856;12.154;2023-02-10T10:57:02;98292.56;;;5.39;60.02
11444;BME280;5778;47.856;12.154;2023-02-10T10:59:34;98286.03;;;5.27;56.48
11444;BME280;5778;47.856;12.154;2023-02-10T11:02:13;98282.00;;;5.77;61.06
11444;BME280;5778;47.856;12.154;2023-02-10T11:04:41;98284.00;;;6.06;56.19
11444;BME280;5778;47.856;12.154;2023-02-10T11:07:11;98280.44;;;6.36;55.75
11444;BME280;5778;47.856;12.154;2023-02-10T11:09:40;98276.88;;;5.76;54.35
11444;BME280;5778;47.856;12.154;2023-02-10T11:12:16;98271.41;;;6.08;56.71
11444;BME280;5778;47.856;12.154;2023-02-10T11:14:49;98261.78;;;6.15;55.43
11444;BME280;5778;47.856;12.154;2023-02-10T11:17:23;98262.63;;;6.52;54.05
11444;BME280;5778;47.856;12.154;2023-02-10T11:19:57;98259.25;;;6.21;54.59
11444;BME280;5778;47.856;12.154;2023-02-10T11:22:28;98259.41;;;5.75;56.01
11444;BME280;5778;47.856;12.154;2023-02-10T11:24:56;98252.81;;;6.24;56.76
11444;BME280;5778;47.856;12.154;2023-02-10T11:27:26;98255.53;;;6.16;54.59
11444;BME280;5778;47.856;12.154;2023-02-10T11:29:56;98245.00;;;6.08;55.55
11444;BME280;5778;47.856;12.154;2023-02-10T11:32:24;98244.78;;;5.95;55.50
11444;BME280;5778;47.856;12.154;2023-02-10T11:34:54;98231.63;;;5.56;55.21
11444;BME280;5778;47.856;12.154;2023-02-10T11:37:26;98235.59;;;5.60;54.81
11444;BME280;5778;47.856;12.154;2023-02-10T11:39:53;98232.16;;;5.74;54.75
11444;BME280;5778;47.856;12.154;2023-02-10T11:42:29;98225.88;;;5.83;54.76
11444;BME280;5778;47.856;12.154;2023-02-10T11:44:59;98215.09;;;6.30;55.65
11444;BME280;5778;47.856;12.154;2023-02-10T11:47:29;98221.59;;;6.42;54.30
11444;BME280;5778;47.856;12.154;2023-02-10T11:54:56;98210.38;;;6.40;54.57
11444;BME280;5778;47.856;12.154;2023-02-10T11:57:44;98206.16;;;6.31;53.12
11444;BME280;5778;47.856;12.154;2023-02-10T12:00:37;98217.88;;;6.14;54.57
11444;BME280;5778;47.856;12.154;2023-02-10T12:06:30;98210.50;;;6.75;52.19
11444;BME280;5778;47.856;12.154;2023-02-10T12:09:06;98212.41;;;6.38;52.12
11444;BME280;5778;47.856;12.154;2023-02-10T12:11:43;98205.84;;;6.63;52.47
11444;BME280;5778;47.856;12.154;2023-02-10T12:14:27;98201.91;;;7.17;51.60
11444;BME280;5778;47.856;12.154;2023-02-10T12:17:02;98194.81;;;7.03;49.92
11444;BME280;5778;47.856;12.154;2023-02-10T12:19:39;98195.66;;;6.60;50.47
11444;BME280;5778;47.856;12.154;2023-02-10T12:22:13;98192.44;;;6.50;50.95
11444;BME280;5778;47.856;12.154;2023-02-10T12:24:57;98190.03;;;6.26;51.30
11444;BME280;5778;47.856;12.154;2023-02-10T12:27:45;98178.38;;;7.07;51.35
11444;BME280;5778;47.856;12.154;2023-02-10T12:30:24;98179.31;;;7.00;50.80
11444;BME280;5778;47.856;12.154;2023-02-10T12:33:00;98177.63;;;7.28;50.53
11444;BME280;5778;47.856;12.154;2023-02-10T12:35:39;98187.47;;;7.19;48.98
11444;BME280;5778;47.856;12.154;2023-02-10T12:38:21;98183.28;;;7.25;48.37
11444;BME280;5778;47.856;12.154;2023-02-10T12:41:01;98183.03;;;7.76;48.82
11444;BME280;5778;47.856;12.154;2023-02-10T12:43:46;98178.88;;;7.67;47.30
11444;BME280;5778;47.856;12.154;2023-02-10T12:46:25;98179.75;;;7.74;46.94
11444;BME280;5778;47.856;12.154;2023-02-10T12:49:16;98179.47;;;7.69;46.69
11444;BME280;5778;47.856;12.154;2023-02-10T12:51:56;98173.50;;;8.24;46.27
11444;BME280;5778;47.856;12.154;2023-02-10T12:54:32;98167.94;;;8.46;45.45
11444;BME280;5778;47.856;12.154;2023-02-10T12:57:05;98165.88;;;8.42;45.60
11444;BME280;5778;47.856;12.154;2023-02-10T12:59:43;98165.63;;;8.16;45.18
11444;BME280;5778;47.856;12.154;2023-02-10T13:02:17;98155.13;;;8.90;46.17
11444;BME280;5778;47.856;12.154;2023-02-10T13:04:49;98149.72;;;9.05;45.68
11444;BME280;5778;47.856;12.154;2023-02-10T13:07:26;98146.28;;;9.17;44.84
11444;BME280;5778;47.856;12.154;2023-02-10T13:09:59;98149.25;;;8.95;44.17
11444;BME280;5778;47.856;12.154;2023-02-10T13:12:31;98140.88;;;8.98;43.55
11444;BME280;5778;47.856;12.154;2023-02-10T13:15:05;98134.38;;;8.60;43.85
11444;BME280;5778;47.856;12.154;2023-02-10T13:17:40;98134.13;;;8.55;43.95
11444;BME280;5778;47.856;12.154;2023-02-10T13:20:22;98141.72;;;8.58;43.77
11444;BME280;5778;47.856;12.154;2023-02-10T13:22:56;98130.91;;;8.25;43.95
11444;BME280;5778;47.856;12.154;2023-02-10T13:25:29;98131.28;;;8.50;44.66
11444;BME280;5778;47.856;12.154;2023-02-10T13:28:10;98120.03;;;9.48;44.00
11444;BME280;5778;47.856;12.154;2023-02-10T13:30:51;98126.63;;;9.05;42.16
11444;BME280;5778;47.856;12.154;2023-02-10T13:33:32;98120.78;;;9.23;42.69
11444;BME280;5778;47.856;12.154;2023-02-10T13:36:09;98123.94;;;8.92;42.78